Главная страница
METAR-TAF:

METAR-TAF

Аэропорты :

Трольхеттан-Венерсборг, Швеция

широта: 58-19N, долгота: 012-21E, высота над уровнем моря: 41 м

Текущие метеонаблюдения

Эта сводка был подготовлена 16 минут назад, в 20:20 UTC
Ветер 6 Узел от южный
Температура 6°C
Влажность 100%
Давление 1030 hPa
Видимость: 7000 м
Отдельные облака на высоте 10000 фута
дымка

METAR: ESGT 152020Z 18006KT 7000 BR SCT100 06/06 Q1030

Время: 21:36 (20:36 UTC)

Прогноз

Эта сводка был подготовлена 3 часа и 6 минут назад, в 17:30 UTC
Прогноз действительный с 15-го 18 UTC до 15-го 22 UTC
Ветер 5 Узел от южный-юго-западный
Видимость 10 км и более
Нет облачности ниже 1500 м, и нет кучево-дождевой облачности
Вероятность 40%
С 15-го 18 UTC до 15-го 22 UTC
Видимость: 2500 м
дымка

TAF: ESGT 151730Z 1518/1522 20005KT CAVOK PROB40 1518/1522 2500 BR

Метеонаблюдения и прогнозы для более 4000 аэропортов (сводки METAR и TAF).

Имеющиеся станции представлены на карте желтыми и красными точками.

Чтобы увидеть название станции, наведите на нее мышь.

Затем щелкните, чтобы увидеть метеонаблюдения и метеопрогнозы.

Управление картой: чтобы увеличить масштаб, щелкните зеленые кнопки с черным крестиком; чтобы уменьшить масштаб, щелкните зеленую кнопку с тире; для просмотра соседних карт щелкайте зеленые стрелки.


METAR-TAF: